createdAt,value
2023-04-25T00:01:50.126Z,5.18
2023-04-25T00:04:16.934Z,4.72
2023-04-25T00:06:43.610Z,8.65
2023-04-25T00:09:11.101Z,5.38
2023-04-25T00:11:38.675Z,9.25
2023-04-25T00:14:05.585Z,9.88
2023-04-25T00:16:34.746Z,8.02
2023-04-25T00:19:04.408Z,6.78
2023-04-25T00:21:32.579Z,10.55
2023-04-25T00:23:59.427Z,5.80
2023-04-25T00:26:26.008Z,10.20
2023-04-25T00:28:52.922Z,7.10
2023-04-25T00:31:19.548Z,7.53
2023-04-25T00:33:46.009Z,9.63
2023-04-25T00:36:12.587Z,8.13
2023-04-25T00:38:39.271Z,9.35
2023-04-25T00:41:07.326Z,11.40
2023-04-25T00:43:34.796Z,10.80
2023-04-25T00:46:02.191Z,12.95
2023-04-25T00:48:28.666Z,6.20
2023-04-25T00:50:57.736Z,11.30
2023-04-25T00:53:26.419Z,15.73
2023-04-25T00:55:53.717Z,5.50
2023-04-25T00:58:22.109Z,10.70
2023-04-25T01:00:51.090Z,7.45
2023-04-25T01:03:18.409Z,9.68
2023-04-25T01:05:45.016Z,6.78
2023-04-25T01:08:11.752Z,8.63
2023-04-25T01:10:38.175Z,13.20
2023-04-25T01:13:04.624Z,7.68
2023-04-25T01:15:31.272Z,13.13
2023-04-25T01:17:59.453Z,6.78
2023-04-25T01:20:25.978Z,10.15
2023-04-25T01:22:53.516Z,12.13
2023-04-25T01:25:20.625Z,8.48
2023-04-25T01:27:47.483Z,8.98
2023-04-25T01:30:14.799Z,7.25
2023-04-25T01:32:43.189Z,11.73
2023-04-25T01:35:12.169Z,7.15
2023-04-25T01:37:39.752Z,10.18
2023-04-25T01:40:06.903Z,11.30
2023-04-25T01:42:35.088Z,12.15
2023-04-25T01:45:02.927Z,9.50
2023-04-25T01:47:31.760Z,11.93
2023-04-25T01:49:59.335Z,10.25
2023-04-25T01:52:25.814Z,11.18
2023-04-25T01:54:52.481Z,14.00
2023-04-25T01:57:19.070Z,12.15
2023-04-25T01:59:45.607Z,14.88
2023-04-25T02:02:21.383Z,8.80
2023-04-25T02:04:47.973Z,10.30
2023-04-25T02:07:15.100Z,11.30
2023-04-25T02:09:49.335Z,10.55
2023-04-25T02:12:17.340Z,11.48
2023-04-25T02:15:10.573Z,12.05
2023-04-25T02:17:46.099Z,12.75
2023-04-25T02:20:12.563Z,11.43
2023-04-25T02:22:39.847Z,14.50
2023-04-25T02:25:07.155Z,11.18
2023-04-25T02:27:33.652Z,13.07
2023-04-25T02:30:00.150Z,10.45
2023-04-25T02:32:27.891Z,10.65
2023-04-25T02:34:54.823Z,13.82
2023-04-25T02:37:21.309Z,11.23
2023-04-25T02:39:47.726Z,9.93
2023-04-25T02:42:14.148Z,14.27
2023-04-25T02:44:40.625Z,13.05
2023-04-25T02:47:07.164Z,13.68
2023-04-25T02:49:33.615Z,13.77
2023-04-25T02:52:00.053Z,13.27
2023-04-25T02:54:26.810Z,13.75
2023-04-25T02:56:53.346Z,10.98
2023-04-25T02:59:25.375Z,12.20
2023-04-25T03:01:51.867Z,11.43
2023-04-25T03:04:20.137Z,11.10
2023-04-25T03:06:47.799Z,10.90
2023-04-25T03:09:14.237Z,13.98
2023-04-25T03:11:40.759Z,12.38
2023-04-25T03:14:07.197Z,13.55
2023-04-25T03:16:34.733Z,11.23
2023-04-25T03:19:01.255Z,14.63
2023-04-25T03:21:27.693Z,11.00
2023-04-25T03:23:54.130Z,17.38
2023-04-25T03:26:21.468Z,10.70
2023-04-25T03:28:48.625Z,13.45
2023-04-25T03:31:15.094Z,14.90
2023-04-25T03:33:41.682Z,10.93
2023-04-25T03:36:08.513Z,15.98
2023-04-25T03:38:34.993Z,9.45
2023-04-25T03:41:02.609Z,11.52
2023-04-25T03:43:44.730Z,10.25
2023-04-25T03:46:13.134Z,11.75
2023-04-25T03:48:40.806Z,13.98
2023-04-25T03:51:09.151Z,13.70
2023-04-25T03:53:38.980Z,17.00
2023-04-25T03:56:24.157Z,13.32
2023-04-25T03:58:58.062Z,13.98
2023-04-25T04:01:28.301Z,12.15
2023-04-25T04:03:55.135Z,11.48
2023-04-25T04:06:22.077Z,13.90
2023-04-25T04:08:53.693Z,13.55
2023-04-25T04:11:21.372Z,20.33
2023-04-25T04:13:47.937Z,14.73
2023-04-25T04:16:14.467Z,11.35
2023-04-25T04:18:40.967Z,14.18
2023-04-25T04:21:07.432Z,11.75
2023-04-25T04:23:38.879Z,19.55
2023-04-25T04:26:08.168Z,17.45
2023-04-25T04:29:08.035Z,15.55
2023-04-25T04:31:46.449Z,14.75
2023-04-25T04:34:13.698Z,11.75
2023-04-25T04:36:41.007Z,11.27
2023-04-25T04:39:07.486Z,13.80
2023-04-25T04:41:42.509Z,10.77
2023-04-25T04:44:33.652Z,11.20
2023-04-25T04:47:15.032Z,10.93
2023-04-25T04:50:00.301Z,13.77
2023-04-25T04:52:32.906Z,16.42
2023-04-25T04:55:05.233Z,16.70
2023-04-25T04:57:52.525Z,10.60
2023-04-25T05:00:30.514Z,19.35
2023-04-25T05:03:12.909Z,11.13
2023-04-25T05:05:48.816Z,13.90
2023-04-25T05:08:32.677Z,16.33
2023-04-25T05:11:14.563Z,13.75
2023-04-25T05:14:04.051Z,14.88
2023-04-25T05:17:09.503Z,15.10
2023-04-25T05:20:02.636Z,12.10
2023-04-25T05:22:50.399Z,15.60
2023-04-25T05:25:24.898Z,15.32
2023-04-25T05:28:06.823Z,17.83
2023-04-25T05:30:59.404Z,16.73
2023-04-25T05:33:31.920Z,19.10
2023-04-25T05:35:59.440Z,18.10
2023-04-25T05:38:26.915Z,17.10
2023-04-25T05:41:19.215Z,14.70
2023-04-25T05:43:59.009Z,16.77
2023-04-25T05:46:30.618Z,10.48
2023-04-25T05:49:15.166Z,17.98
2023-04-25T05:52:01.394Z,15.40
2023-04-25T05:54:43.258Z,19.25
2023-04-25T05:57:09.766Z,18.83
2023-04-25T05:59:36.837Z,15.70
2023-04-25T06:02:03.523Z,13.27
2023-04-25T06:04:33.098Z,14.68
2023-04-25T06:07:00.888Z,17.35
2023-04-25T06:09:27.287Z,19.67
2023-04-25T06:11:54.384Z,16.25
2023-04-25T06:14:20.816Z,21.35
2023-04-25T06:16:49.784Z,12.82
2023-04-25T06:19:16.222Z,15.60
2023-04-25T06:21:44.980Z,17.67
2023-04-25T06:24:11.912Z,18.13
2023-04-25T06:26:38.961Z,16.95
2023-04-25T06:29:06.266Z,17.77
2023-04-25T06:31:36.229Z,14.20
2023-04-25T06:34:03.437Z,15.63
2023-04-25T06:36:32.472Z,15.82
2023-04-25T06:39:04.842Z,15.70
2023-04-25T06:41:33.126Z,20.25
2023-04-25T06:44:02.231Z,14.02
2023-04-25T06:46:32.847Z,13.23
2023-04-25T06:48:59.886Z,18.17
2023-04-25T06:51:29.384Z,18.85
2023-04-25T06:53:56.067Z,15.85
2023-04-25T06:56:31.881Z,11.45
2023-04-25T06:59:08.965Z,19.40
2023-04-25T07:01:37.646Z,13.60
2023-04-25T07:04:09.313Z,23.10
2023-04-25T07:06:43.549Z,20.73
2023-04-25T07:09:11.154Z,18.50
2023-04-25T07:11:37.938Z,20.48
2023-04-25T07:14:04.681Z,17.15
2023-04-25T07:16:31.582Z,17.83
2023-04-25T07:19:00.391Z,18.77
2023-04-25T07:21:27.264Z,21.90
2023-04-25T07:23:54.037Z,20.10
2023-04-25T07:26:25.684Z,22.27
2023-04-25T07:29:12.113Z,21.67
2023-04-25T07:31:38.835Z,16.02
2023-04-25T07:34:05.293Z,22.60
2023-04-25T07:36:32.282Z,20.10
2023-04-25T07:38:58.696Z,20.38
2023-04-25T07:41:25.160Z,20.13
2023-04-25T07:43:51.984Z,24.40
2023-04-25T07:46:20.299Z,21.33
2023-04-25T07:48:46.775Z,27.00
2023-04-25T07:51:13.356Z,27.77
2023-04-25T07:53:41.484Z,22.83
2023-04-25T07:56:12.702Z,17.55
2023-04-25T07:58:42.404Z,25.40
2023-04-25T08:01:11.010Z,19.02
2023-04-25T08:03:46.507Z,25.38
2023-04-25T08:06:22.665Z,24.77
2023-04-25T08:08:58.362Z,20.80
2023-04-25T08:11:31.996Z,24.35
2023-04-25T08:13:58.486Z,25.75
2023-04-25T08:16:26.077Z,19.00
2023-04-25T08:18:53.086Z,27.85
2023-04-25T08:21:20.087Z,27.58
2023-04-25T08:23:46.999Z,25.73
2023-04-25T08:26:21.339Z,32.25
2023-04-25T08:28:49.956Z,25.45
2023-04-25T08:31:16.856Z,18.38
2023-04-25T08:33:54.785Z,25.80
2023-04-25T08:38:59.846Z,26.42
2023-04-25T08:41:28.282Z,30.02
2023-04-25T08:43:57.333Z,16.70
2023-04-25T08:46:24.861Z,21.42
2023-04-25T08:49:12.543Z,19.63
2023-04-25T08:51:47.620Z,16.17
2023-04-25T08:54:34.660Z,25.23
2023-04-25T08:57:05.300Z,17.40
2023-04-25T08:59:34.823Z,17.70
2023-04-25T09:02:02.183Z,24.63
2023-04-25T09:04:32.332Z,20.73
2023-04-25T09:06:59.762Z,28.90
2023-04-25T09:09:26.890Z,22.95
2023-04-25T09:11:55.610Z,24.25
2023-04-25T09:14:24.140Z,19.05
2023-04-25T09:17:13.562Z,22.13
2023-04-25T09:20:14.541Z,21.63
2023-04-25T09:22:41.155Z,22.23
2023-04-25T09:25:12.912Z,21.20
2023-04-25T09:27:56.921Z,22.52
2023-04-25T09:30:32.743Z,19.23
2023-04-25T09:33:08.875Z,24.13
2023-04-25T09:35:44.585Z,16.85
2023-04-25T09:38:19.511Z,15.48
2023-04-25T09:41:02.168Z,14.70
2023-04-25T09:43:38.048Z,21.05
2023-04-25T09:46:12.418Z,22.60
2023-04-25T09:48:50.360Z,16.20
2023-04-25T09:51:18.639Z,14.90
2023-04-25T09:53:50.874Z,16.23
2023-04-25T09:56:24.586Z,22.10
2023-04-25T09:58:54.692Z,15.52
2023-04-25T10:01:22.534Z,18.27
2023-04-25T10:04:05.444Z,12.40
2023-04-25T10:06:54.505Z,17.67
2023-04-25T10:09:22.193Z,15.77
2023-04-25T10:11:52.068Z,15.90
2023-04-25T10:14:19.886Z,14.98
2023-04-25T10:16:46.675Z,14.63
2023-04-25T10:19:14.205Z,18.75
2023-04-25T10:21:49.178Z,21.00
2023-04-25T10:24:16.353Z,15.45
2023-04-25T10:26:43.127Z,12.18
2023-04-25T10:29:10.411Z,18.70
2023-04-25T10:31:47.083Z,12.10
2023-04-25T10:34:13.640Z,11.48
2023-04-25T10:36:40.691Z,13.63
2023-04-25T10:39:09.773Z,12.90
2023-04-25T10:41:53.544Z,13.10
2023-04-25T10:44:19.963Z,12.82
2023-04-25T10:46:49.389Z,15.75
2023-04-25T10:49:35.625Z,12.57
2023-04-25T10:52:27.691Z,11.95
2023-04-25T10:54:56.329Z,19.63
2023-04-25T10:57:40.903Z,17.13
2023-04-25T11:00:17.931Z,17.17
2023-04-25T11:02:49.571Z,19.25
2023-04-25T11:05:22.757Z,16.90
2023-04-25T11:08:06.399Z,11.20
2023-04-25T11:10:37.645Z,17.35
2023-04-25T11:13:05.964Z,17.57
2023-04-25T11:15:32.514Z,10.32
2023-04-25T11:17:58.969Z,12.80
2023-04-25T11:20:27.253Z,14.88
2023-04-25T11:22:53.893Z,6.35
2023-04-25T11:25:21.085Z,11.38
2023-04-25T11:27:58.069Z,9.85
2023-04-25T11:30:26.504Z,9.07
2023-04-25T11:32:53.205Z,10.98
2023-04-25T11:35:21.792Z,8.25
2023-04-25T11:37:48.419Z,7.93
2023-04-25T11:40:15.400Z,14.90
2023-04-25T11:42:46.548Z,9.85
2023-04-25T11:45:14.122Z,16.48
2023-04-25T11:47:40.879Z,7.50
2023-04-25T11:50:08.958Z,8.63
2023-04-25T11:52:43.595Z,9.95
2023-04-25T11:55:13.527Z,9.80
2023-04-25T11:57:41.168Z,12.27
2023-04-25T12:00:09.609Z,11.48
2023-04-25T12:02:42.123Z,12.20
2023-04-25T12:05:29.373Z,13.82
2023-04-25T12:07:56.269Z,12.50
2023-04-25T12:10:22.884Z,9.52
2023-04-25T12:12:49.549Z,17.08
2023-04-25T12:15:24.558Z,15.73
2023-04-25T12:17:53.217Z,7.03
2023-04-25T12:20:21.438Z,13.32
2023-04-25T12:22:49.737Z,14.75
2023-04-25T12:25:40.497Z,8.88
2023-04-25T12:28:28.681Z,14.95
2023-04-25T12:31:02.783Z,12.60
2023-04-25T12:33:31.593Z,9.90
2023-04-25T12:35:58.741Z,10.52
2023-04-25T12:38:31.017Z,12.15
2023-04-25T12:40:58.712Z,13.40
2023-04-25T12:43:25.573Z,7.90
2023-04-25T12:45:53.594Z,6.45
2023-04-25T12:48:21.075Z,6.75
2023-04-25T12:50:51.173Z,9.68
2023-04-25T12:53:21.895Z,17.07
2023-04-25T12:55:49.158Z,8.40
2023-04-25T12:58:16.979Z,11.43
2023-04-25T13:00:44.084Z,12.02
2023-04-25T13:03:12.089Z,10.23
2023-04-25T13:05:39.463Z,6.35
2023-04-25T13:08:06.102Z,14.77
2023-04-25T13:10:34.706Z,9.45
2023-04-25T13:13:02.233Z,16.58
2023-04-25T13:15:29.282Z,9.98
2023-04-25T13:17:56.773Z,11.75
2023-04-25T13:20:23.454Z,8.10
2023-04-25T13:22:49.935Z,13.02
2023-04-25T13:25:17.276Z,11.75
2023-04-25T13:27:45.153Z,6.78
2023-04-25T13:30:11.866Z,16.65
2023-04-25T13:32:39.235Z,15.73
2023-04-25T13:35:10.503Z,8.23
2023-04-25T13:37:37.758Z,17.08
2023-04-25T13:40:06.412Z,12.93
2023-04-25T13:42:33.380Z,9.95
2023-04-25T13:44:59.854Z,7.85
2023-04-25T13:47:27.648Z,9.68
2023-04-25T13:49:54.265Z,11.35
2023-04-25T13:52:20.894Z,8.32
2023-04-25T13:54:47.537Z,9.45
2023-04-25T13:57:14.150Z,8.55
2023-04-25T13:59:41.620Z,10.10
2023-04-25T14:02:08.409Z,18.88
2023-04-25T14:04:34.890Z,6.22
2023-04-25T14:07:03.094Z,10.38
2023-04-25T14:09:29.639Z,14.45
2023-04-25T14:11:57.188Z,9.40
2023-04-25T14:14:24.661Z,9.43
2023-04-25T14:16:52.601Z,10.40
2023-04-25T14:19:20.951Z,12.20
2023-04-25T14:21:48.627Z,6.95
2023-04-25T14:24:15.072Z,6.68
2023-04-25T14:26:41.669Z,4.13
2023-04-25T14:29:09.613Z,9.63
2023-04-25T14:31:36.345Z,8.50
2023-04-25T14:34:03.421Z,9.95
2023-04-25T14:36:29.920Z,8.52
2023-04-25T14:38:56.471Z,6.53
2023-04-25T14:41:24.063Z,12.75
2023-04-25T14:43:50.782Z,12.30
2023-04-25T14:46:18.425Z,13.70
2023-04-25T14:48:44.925Z,8.75
2023-04-25T14:51:11.428Z,7.13
2023-04-25T14:53:37.896Z,8.88
2023-04-25T14:56:04.560Z,10.85
2023-04-25T14:58:32.295Z,12.82
2023-04-25T15:00:59.466Z,8.95
2023-04-25T15:03:26.064Z,5.25
2023-04-25T15:05:53.595Z,7.85
2023-04-25T15:08:20.052Z,10.27
2023-04-25T15:10:47.226Z,9.77
2023-04-25T15:13:13.796Z,7.80
2023-04-25T15:15:40.865Z,6.90
2023-04-25T15:18:07.365Z,6.50
2023-04-25T15:20:33.906Z,5.75
2023-04-25T15:23:00.449Z,3.88
2023-04-25T15:25:28.088Z,8.40
2023-04-25T15:27:55.820Z,6.63
2023-04-25T15:30:22.329Z,8.40
2023-04-25T15:32:49.673Z,7.47
2023-04-25T15:35:16.406Z,8.95
2023-04-25T15:37:42.905Z,7.85
2023-04-25T15:40:13.406Z,6.25
2023-04-25T15:42:42.198Z,6.00
2023-04-25T15:45:10.650Z,8.70
2023-04-25T15:47:38.718Z,19.92
2023-04-25T15:50:08.232Z,6.97
2023-04-25T15:52:35.635Z,7.45
2023-04-25T15:55:02.432Z,11.18
2023-04-25T15:57:28.853Z,6.20
2023-04-25T15:59:56.478Z,6.95
2023-04-25T16:02:23.016Z,10.68
2023-04-25T16:04:49.982Z,8.35
2023-04-25T16:07:16.496Z,5.45
2023-04-25T16:09:42.947Z,5.10
2023-04-25T16:12:10.886Z,4.80
2023-04-25T16:14:37.422Z,8.63
2023-04-25T16:17:03.826Z,6.65
2023-04-25T16:19:30.436Z,5.75
2023-04-25T16:21:56.850Z,10.35
2023-04-25T16:24:23.247Z,7.75
2023-04-25T16:26:49.666Z,8.82
2023-04-25T16:29:17.709Z,10.65
2023-04-25T16:31:44.571Z,7.47
2023-04-25T16:34:11.211Z,7.00
2023-04-25T16:36:37.619Z,3.90
2023-04-25T16:39:04.101Z,5.63
2023-04-25T16:41:30.522Z,7.75
2023-04-25T16:43:56.926Z,5.70
2023-04-25T16:46:23.838Z,5.32
2023-04-25T16:48:50.536Z,4.50
2023-04-25T16:51:17.327Z,6.22
2023-04-25T16:53:43.839Z,8.70
2023-04-25T16:56:10.300Z,7.95
2023-04-25T16:58:36.806Z,4.22
2023-04-25T17:01:03.595Z,5.13
2023-04-25T17:03:30.858Z,4.90
2023-04-25T17:06:01.129Z,6.85
2023-04-25T17:08:28.680Z,6.82
2023-04-25T17:10:55.283Z,7.00
2023-04-25T17:13:21.705Z,12.15
2023-04-25T17:15:57.389Z,5.63
2023-04-25T17:18:24.646Z,5.07
2023-04-25T17:20:51.191Z,5.85
2023-04-25T17:23:18.819Z,6.07
2023-04-25T17:25:45.440Z,7.85
2023-04-25T17:28:12.975Z,7.03
2023-04-25T17:30:39.973Z,9.52
2023-04-25T17:33:09.413Z,7.07
2023-04-25T17:35:36.691Z,10.93
2023-04-25T17:38:04.209Z,9.25
2023-04-25T17:40:31.355Z,6.28
2023-04-25T17:42:57.749Z,10.20
2023-04-25T17:45:24.235Z,6.47
2023-04-25T17:47:50.690Z,5.20
2023-04-25T17:50:17.319Z,6.38
2023-04-25T17:52:45.082Z,7.72
2023-04-25T17:55:11.590Z,8.55
2023-04-25T17:57:38.100Z,8.38
2023-04-25T18:00:07.803Z,6.50
2023-04-25T18:02:39.100Z,7.07
2023-04-25T18:05:09.287Z,9.20
2023-04-25T18:07:36.619Z,8.95
2023-04-25T18:10:08.997Z,10.88
2023-04-25T18:12:35.866Z,7.25
2023-04-25T18:15:05.878Z,12.05
2023-04-25T18:17:40.317Z,10.95
2023-04-25T18:20:14.814Z,9.05
2023-04-25T18:22:42.835Z,8.75
2023-04-25T18:25:11.073Z,9.15
2023-04-25T18:27:38.739Z,9.85
2023-04-25T18:30:06.547Z,7.45
2023-04-25T18:32:33.132Z,10.60
2023-04-25T18:34:59.585Z,6.65
2023-04-25T18:37:26.073Z,8.50
2023-04-25T18:39:52.475Z,6.28
2023-04-25T18:42:19.720Z,8.45
2023-04-25T18:44:46.520Z,7.72
2023-04-25T18:47:13.309Z,5.95
2023-04-25T18:49:40.472Z,5.80
2023-04-25T18:52:12.656Z,8.77
2023-04-25T18:54:39.146Z,4.28
2023-04-25T18:57:06.196Z,7.25
2023-04-25T18:59:33.430Z,5.65
2023-04-25T19:02:04.331Z,7.82
2023-04-25T19:04:31.085Z,6.38
2023-04-25T19:06:57.783Z,7.47
2023-04-25T19:09:24.912Z,7.75
2023-04-25T19:11:51.447Z,7.53
2023-04-25T19:14:17.858Z,12.20
2023-04-25T19:16:44.345Z,8.23
2023-04-25T19:19:11.376Z,9.43
2023-04-25T19:21:37.916Z,8.25
2023-04-25T19:24:05.230Z,5.45
2023-04-25T19:26:31.729Z,9.52
2023-04-25T19:29:04.898Z,7.60
2023-04-25T19:31:32.192Z,7.68
2023-04-25T19:33:59.109Z,8.75
2023-04-25T19:36:25.590Z,15.52
2023-04-25T19:38:51.998Z,7.40
2023-04-25T19:41:18.421Z,8.52
2023-04-25T19:43:44.836Z,11.80
2023-04-25T19:46:11.357Z,5.57
2023-04-25T19:48:38.122Z,7.07
2023-04-25T19:51:04.792Z,7.60
2023-04-25T19:53:31.457Z,8.10
2023-04-25T19:55:57.888Z,5.45
2023-04-25T19:58:24.339Z,8.93
2023-04-25T20:00:51.352Z,10.75
2023-04-25T20:03:18.509Z,6.50
2023-04-25T20:05:44.922Z,3.95
2023-04-25T20:08:11.338Z,10.90
2023-04-25T20:10:37.771Z,8.50
2023-04-25T20:13:04.405Z,8.63
2023-04-25T20:15:31.829Z,6.95
2023-04-25T20:17:58.282Z,6.38
2023-04-25T20:20:24.700Z,8.40
2023-04-25T20:22:51.516Z,4.78
2023-04-25T20:25:19.106Z,8.35
2023-04-25T20:27:45.512Z,8.20
2023-04-25T20:30:12.558Z,6.50
2023-04-25T20:32:39.321Z,9.80
2023-04-25T20:35:08.971Z,14.43
2023-04-25T20:37:36.101Z,9.02
2023-04-25T20:40:06.145Z,9.50
2023-04-25T20:42:32.869Z,7.00
2023-04-25T20:44:59.255Z,8.80
2023-04-25T20:47:25.696Z,16.15
2023-04-25T20:49:52.259Z,6.97
2023-04-25T20:52:18.777Z,6.35
2023-04-25T20:54:50.203Z,8.90
2023-04-25T20:57:17.399Z,7.28
2023-04-25T20:59:43.839Z,9.18
2023-04-25T21:02:12.483Z,5.63
2023-04-25T21:04:39.020Z,6.97
2023-04-25T21:07:05.481Z,6.15
2023-04-25T21:09:31.874Z,10.75
2023-04-25T21:11:58.297Z,8.00
2023-04-25T21:14:25.555Z,10.40
2023-04-25T21:16:52.102Z,7.72
2023-04-25T21:19:18.839Z,6.18
2023-04-25T21:21:45.672Z,5.57
2023-04-25T21:24:14.140Z,8.65
2023-04-25T21:26:40.544Z,9.65
2023-04-25T21:29:06.947Z,7.35
2023-04-25T21:31:33.487Z,14.40
2023-04-25T21:33:59.969Z,9.40
2023-04-25T21:36:27.729Z,7.95
2023-04-25T21:38:54.423Z,10.57
2023-04-25T21:41:21.092Z,8.93
2023-04-25T21:43:47.536Z,5.30
2023-04-25T21:48:43.267Z,7.55
2023-04-25T21:51:09.671Z,7.82
2023-04-25T21:53:36.592Z,11.05
2023-04-25T21:56:03.057Z,8.93
2023-04-25T21:58:29.491Z,8.82
2023-04-25T22:00:56.221Z,6.57
2023-04-25T22:03:22.765Z,7.90
2023-04-25T22:05:49.217Z,4.85
2023-04-25T22:08:15.808Z,5.72
2023-04-25T22:10:42.658Z,5.35
2023-04-25T22:13:10.000Z,8.80
2023-04-25T22:15:36.384Z,6.05
2023-04-25T22:18:05.601Z,9.75
2023-04-25T22:20:32.099Z,15.55
2023-04-25T22:22:58.569Z,5.10
2023-04-25T22:25:25.524Z,8.00
2023-04-25T22:27:51.945Z,9.52
2023-04-25T22:30:18.415Z,14.20
2023-04-25T22:32:44.829Z,13.27
2023-04-25T22:35:12.085Z,10.73
2023-04-25T22:37:40.559Z,11.07
2023-04-25T22:40:08.773Z,15.55
2023-04-25T22:42:39.828Z,10.00
2023-04-25T22:47:35.853Z,8.30
2023-04-25T22:50:05.685Z,12.48
2023-04-25T22:52:33.622Z,8.32
2023-04-25T22:55:04.325Z,11.88
2023-04-25T22:57:31.284Z,9.82
2023-04-25T22:59:57.913Z,5.05
2023-04-25T23:02:27.464Z,14.52
2023-04-25T23:04:54.769Z,13.70
2023-04-25T23:07:21.203Z,11.60
2023-04-25T23:09:47.603Z,12.23
2023-04-25T23:12:17.815Z,11.32
2023-04-25T23:14:44.250Z,13.90
2023-04-25T23:17:11.462Z,7.15
2023-04-25T23:19:38.332Z,12.23
2023-04-25T23:22:05.838Z,11.68
2023-04-25T23:24:36.213Z,13.35
2023-04-25T23:27:03.453Z,13.63
2023-04-25T23:29:30.054Z,13.80
2023-04-25T23:31:56.949Z,15.73
2023-04-25T23:34:23.407Z,7.00
2023-04-25T23:36:49.813Z,12.70
2023-04-25T23:39:18.768Z,8.55
2023-04-25T23:41:45.167Z,10.68
2023-04-25T23:44:12.272Z,5.93
2023-04-25T23:46:38.738Z,10.57
2023-04-25T23:49:05.477Z,14.10
2023-04-25T23:51:32.227Z,10.57
2023-04-25T23:53:58.686Z,10.65
2023-04-25T23:56:25.122Z,10.70
2023-04-25T23:58:51.980Z,16.55
